Time;durP1;ratioP1;P1;durP2;ratioP2;P2;SDS_P1;SDS_P2;PMS_P1;PMS_P2;Temp;Humidity;BMP_temperature;BMP_pressure;BME280_temperature;BME280_humidity;BME280_pressure;Samples;Min_cycle;Max_cycle;Signal;HPM_P1;HPM_P2
2022/12/28 00:01:32;;;;;;;5.18;2.20;;;16.10;99.90;;;;;;5031399;28;20488;-72
2022/12/28 00:04:00;;;;;;;3.72;2.08;;;16.10;99.90;;;;;;5032041;28;20026;-73
2022/12/28 00:06:27;;;;;;;5.82;1.85;;;16.20;99.90;;;;;;5008246;28;20084;-71
2022/12/28 00:08:56;;;;;;;5.10;2.15;;;16.20;99.90;;;;;;5026911;28;20095;-70
2022/12/28 00:11:25;;;;;;;5.97;1.98;;;16.30;99.90;;;;;;5025053;28;20052;-69
2022/12/28 00:13:52;;;;;;;6.82;1.92;;;16.40;99.90;;;;;;5018779;28;20038;-70
2022/12/28 00:16:30;;;;;;;3.42;1.77;;;16.40;99.90;;;;;;5044127;28;20033;-70
2022/12/28 00:18:59;;;;;;;6.20;1.80;;;16.40;99.90;;;;;;5031707;28;20105;-70
2022/12/28 00:21:27;;;;;;;6.30;2.17;;;16.40;99.90;;;;;;5014450;28;20378;-69
2022/12/28 00:23:55;;;;;;;3.78;1.80;;;16.30;99.90;;;;;;5032768;28;20506;-70
2022/12/28 00:26:22;;;;;;;5.60;1.90;;;16.30;99.90;;;;;;5032580;28;20079;-72
2022/12/28 00:28:50;;;;;;;6.90;2.05;;;16.30;99.90;;;;;;5026979;28;20108;-70
2022/12/28 00:31:17;;;;;;;6.60;2.40;;;16.30;99.90;;;;;;4994844;28;20469;-72
2022/12/28 00:33:44;;;;;;;4.88;2.30;;;16.30;99.90;;;;;;5031796;28;20033;-73
2022/12/28 00:36:12;;;;;;;5.22;2.67;;;16.30;99.90;;;;;;5031695;28;20052;-73
2022/12/28 00:38:40;;;;;;;4.10;2.10;;;16.30;99.90;;;;;;5031283;28;20049;-70
2022/12/28 00:41:09;;;;;;;5.70;2.30;;;16.30;99.90;;;;;;5031497;28;20032;-72
2022/12/28 00:43:41;;;;;;;6.88;2.75;;;16.30;99.90;;;;;;5031461;28;20033;-74
2022/12/28 00:46:07;;;;;;;6.47;3.00;;;16.30;99.90;;;;;;5013781;28;20037;-73
2022/12/28 00:48:34;;;;;;;7.88;2.35;;;16.20;99.90;;;;;;5031199;28;20032;-73
2022/12/28 00:51:15;;;;;;;7.78;2.40;;;16.20;99.90;;;;;;5030888;28;20156;-75
2022/12/28 00:53:42;;;;;;;9.20;2.58;;;16.10;99.90;;;;;;5013273;28;20039;-73
2022/12/28 00:56:08;;;;;;;5.53;2.03;;;16.00;99.90;;;;;;5012014;28;20030;-75
2022/12/28 00:58:41;;;;;;;6.50;2.23;;;16.00;99.90;;;;;;5030736;28;20040;-75
2022/12/28 01:01:26;;;;;;;4.05;2.05;;;16.00;99.90;;;;;;5030824;28;20150;-75
2022/12/28 01:03:59;;;;;;;;;;;16.00;99.90;;;;;;5031257;28;20100;-71
2022/12/28 01:06:29;;;;;;;5.30;2.30;;;16.00;99.90;;;;;;5050721;28;19917;-75
2022/12/28 01:09:09;;;;;;;4.75;2.22;;;16.00;99.90;;;;;;5051039;28;20469;-76
2022/12/28 01:11:41;;;;;;;5.82;2.13;;;16.00;99.90;;;;;;5050551;28;20071;-76
2022/12/28 01:14:10;;;;;;;4.07;1.75;;;16.00;99.90;;;;;;5050832;28;20036;-74
2022/12/28 01:16:49;;;;;;;2.70;1.60;;;15.90;99.90;;;;;;5050661;28;20051;-75
2022/12/28 01:19:19;;;;;;;10.00;2.20;;;16.00;99.90;;;;;;5042704;28;20116;-74
2022/12/28 01:21:49;;;;;;;5.57;1.85;;;16.00;99.90;;;;;;5030688;28;20041;-74
2022/12/28 01:24:15;;;;;;;3.85;1.60;;;16.00;99.90;;;;;;5030552;28;20059;-74
2022/12/28 01:26:42;;;;;;;4.28;1.70;;;15.90;99.90;;;;;;5030823;28;20056;-70
2022/12/28 01:29:15;;;;;;;5.45;1.85;;;16.00;99.90;;;;;;5013234;28;20018;-73
2022/12/28 01:31:41;;;;;;;4.18;1.67;;;16.00;99.90;;;;;;5030995;28;20109;-74
2022/12/28 01:34:07;;;;;;;6.00;1.90;;;16.00;99.90;;;;;;5030696;28;20084;-75
2022/12/28 01:36:34;;;;;;;;;;;15.90;99.90;;;;;;5030917;28;20501;-74
2022/12/28 01:39:04;;;;;;;5.85;1.77;;;15.90;99.90;;;;;;5030021;28;20016;-75
2022/12/28 01:41:38;;;;;;;5.13;2.03;;;15.80;99.90;;;;;;5030248;28;20495;-72
2022/12/28 01:44:05;;;;;;;7.00;1.88;;;15.80;99.90;;;;;;5030512;28;20041;-74
2022/12/28 01:46:46;;;;;;;3.40;1.80;;;15.80;99.90;;;;;;5030598;28;20022;-72
2022/12/28 01:50:04;;;;;;;6.82;1.80;;;15.70;99.90;;;;;;5022868;28;20098;-74
2022/12/28 01:52:55;;;;;;;3.72;1.75;;;15.60;99.90;;;;;;5010888;28;20026;-74
2022/12/28 01:55:29;;;;;;;6.35;1.90;;;15.60;99.90;;;;;;5011066;28;20374;-74
2022/12/28 01:58:08;;;;;;;5.97;1.80;;;15.70;99.90;;;;;;5010818;28;20033;-75
2022/12/28 02:00:34;;;;;;;4.93;1.90;;;15.70;99.90;;;;;;5013838;28;20116;-75
2022/12/28 02:03:15;;;;;;;4.47;1.85;;;15.70;99.90;;;;;;5030552;28;20091;-75
2022/12/28 02:06:04;;;;;;;5.88;1.70;;;15.60;99.90;;;;;;5030340;28;20466;-73
2022/12/28 02:08:58;;;;;;;4.75;1.83;;;15.60;99.90;;;;;;5034280;28;20021;-75
2022/12/28 02:11:24;;;;;;;3.58;1.45;;;15.50;99.90;;;;;;5034153;28;20045;-74
2022/12/28 02:13:57;;;;;;;3.83;1.90;;;15.50;99.90;;;;;;5034412;28;20022;-74
2022/12/28 02:16:24;;;;;;;5.55;1.77;;;15.50;99.90;;;;;;5033950;28;20029;-75
2022/12/28 02:18:50;;;;;;;3.90;1.50;;;15.60;99.90;;;;;;5034306;28;20018;-73
2022/12/28 02:22:10;;;;;;;6.30;1.40;;;15.70;99.90;;;;;;5034147;28;20398;-75
2022/12/28 02:24:39;;;;;;;4.53;1.70;;;15.70;99.90;;;;;;4934850;29;20115;-74
2022/12/28 02:27:17;;;;;;;4.05;1.50;;;15.70;99.90;;;;;;4934389;29;20107;-73
2022/12/28 02:30:06;;;;;;;4.72;1.83;;;15.60;99.90;;;;;;4934424;29;20040;-74
2022/12/28 02:33:03;;;;;;;5.10;2.03;;;15.50;99.90;;;;;;4934356;29;20062;-75
2022/12/28 02:35:58;;;;;;;4.10;1.52;;;15.40;99.90;;;;;;4934439;29;20039;-75
2022/12/28 02:39:02;;;;;;;4.55;1.77;;;15.20;99.90;;;;;;4934514;29;20134;-73
2022/12/28 02:41:31;;;;;;;10.38;2.03;;;15.10;99.90;;;;;;4877615;29;20109;-75
2022/12/28 02:43:59;;;;;;;4.00;1.77;;;15.10;99.90;;;;;;4877764;29;20045;-73
2022/12/28 02:52:49;;;;;;;2.83;1.40;;;14.80;99.90;;;;;;4877876;29;20065;-74
2022/12/28 02:56:06;;;;;;;4.18;1.80;;;14.70;99.90;;;;;;4877629;29;20045;-75
2022/12/28 02:59:09;;;;;;;3.58;1.63;;;14.70;99.90;;;;;;4894923;29;20143;-74
2022/12/28 03:02:30;;;;;;;5.50;1.77;;;14.70;99.90;;;;;;4925400;29;20040;-75
2022/12/28 03:08:18;;;;;;;2.60;1.40;;;14.60;99.90;;;;;;4863967;29;20189;-75
2022/12/28 03:08:23;;;;;;;5.75;1.70;;;14.60;99.90;;;;;;4933822;29;20074;-74
2022/12/28 03:11:09;;;;;;;3.97;1.70;;;14.50;99.90;;;;;;4934032;29;20030;-75
2022/12/28 03:14:03;;;;;;;4.20;2.13;;;14.50;99.90;;;;;;4933483;29;20031;-74
2022/12/28 03:31:07;;;;;;;3.55;2.00;;;14.10;99.90;;;;;;4993771;28;20041;-75
2022/12/28 03:34:08;;;;;;;3.33;1.77;;;14.20;99.90;;;;;;4993643;28;20328;-74
2022/12/28 03:36:57;;;;;;;4.85;1.92;;;14.10;99.90;;;;;;4993330;28;20070;-76
2022/12/28 03:40:01;;;;;;;3.53;1.90;;;14.10;99.90;;;;;;5005595;28;20061;-78
2022/12/28 03:45:30;;;;;;;4.43;1.70;;;14.10;99.90;;;;;;5012786;28;20577;-78
2022/12/28 03:47:58;;;;;;;3.80;1.50;;;14.10;99.90;;;;;;4995196;28;20476;-76
2022/12/28 03:50:25;;;;;;;3.38;1.80;;;14.10;99.90;;;;;;5030048;28;20095;-78
2022/12/28 03:52:51;;;;;;;4.43;1.58;;;14.10;99.90;;;;;;5032576;28;20022;-76
2022/12/28 03:55:17;;;;;;;4.28;1.67;;;14.10;99.90;;;;;;5032569;28;20105;-77
2022/12/28 03:58:00;;;;;;;4.93;1.75;;;14.10;99.90;;;;;;5033259;28;20056;-76
2022/12/28 04:00:29;;;;;;;6.57;1.65;;;14.10;99.90;;;;;;5033964;28;20414;-78
2022/12/28 04:02:55;;;;;;;3.72;1.65;;;14.10;99.90;;;;;;5032936;28;20083;-77
2022/12/28 04:05:27;;;;;;;3.53;1.30;;;14.00;99.90;;;;;;5033289;28;20029;-77
2022/12/28 04:08:19;;;;;;;3.08;1.40;;;14.00;99.90;;;;;;5033034;28;20104;-77
2022/12/28 04:11:06;;;;;;;4.40;1.88;;;14.00;99.90;;;;;;5033814;28;20026;-77
2022/12/28 04:13:51;;;;;;;5.38;1.70;;;14.00;99.90;;;;;;5033746;28;20048;-78
2022/12/28 04:16:23;;;;;;;3.92;1.70;;;14.00;99.90;;;;;;5033319;28;20055;-77
2022/12/28 04:18:52;;;;;;;5.00;1.77;;;13.90;99.90;;;;;;5033714;28;20029;-79
2022/12/28 04:21:24;;;;;;;6.97;1.88;;;13.90;99.90;;;;;;5040443;28;20052;-79
2022/12/28 04:23:51;;;;;;;3.83;1.70;;;13.80;99.90;;;;;;5022995;28;20087;-77
2022/12/28 04:26:18;;;;;;;4.50;1.85;;;13.80;99.90;;;;;;5033976;28;20116;-78
2022/12/28 04:28:45;;;;;;;4.57;2.20;;;13.70;99.90;;;;;;5033202;28;20061;-78
2022/12/28 04:31:18;;;;;;;3.60;2.10;;;13.70;99.90;;;;;;5046739;28;20480;-79
2022/12/28 04:34:01;;;;;;;3.83;1.98;;;13.70;99.90;;;;;;5054069;28;20021;-78
2022/12/28 04:36:27;;;;;;;6.50;2.05;;;13.60;99.90;;;;;;5053419;28;20050;-78
2022/12/28 04:38:59;;;;;;;5.68;2.30;;;13.60;99.90;;;;;;5012486;28;20045;-78
2022/12/28 04:41:25;;;;;;;4.45;1.80;;;13.60;99.90;;;;;;5012885;28;20533;-78
2022/12/28 04:43:59;;;;;;;4.20;1.83;;;13.60;99.90;;;;;;5013149;28;20025;-78
2022/12/28 04:46:26;;;;;;;3.00;1.70;;;13.60;99.90;;;;;;5011716;28;20034;-77
2022/12/28 04:48:51;;;;;;;;;;;13.50;99.90;;;;;;5013306;28;20036;-78
2022/12/28 04:51:24;;;;;;;7.95;2.35;;;13.50;99.90;;;;;;5011464;28;19906;-78
2022/12/28 04:53:58;;;;;;;5.80;1.77;;;13.40;99.90;;;;;;5012667;28;20033;-79
2022/12/28 04:56:35;;;;;;;4.57;1.75;;;13.40;99.90;;;;;;5012969;28;20061;-79
2022/12/28 04:59:24;;;;;;;4.72;1.70;;;13.40;99.90;;;;;;5011510;28;20072;-79
2022/12/28 05:01:59;;;;;;;4.45;1.85;;;13.40;99.90;;;;;;5012653;28;20092;-78
2022/12/28 05:04:28;;;;;;;3.15;1.60;;;13.40;99.90;;;;;;5012709;28;20040;-79
2022/12/28 05:06:54;;;;;;;3.55;2.00;;;13.40;99.90;;;;;;5012873;28;20030;-78
2022/12/28 05:09:24;;;;;;;5.80;1.83;;;13.40;99.90;;;;;;5012573;28;20037;-79
2022/12/28 05:12:00;;;;;;;6.93;2.08;;;13.40;99.90;;;;;;4994472;28;20044;-79
2022/12/28 05:14:30;;;;;;;7.85;2.35;;;13.40;99.90;;;;;;5011214;28;20049;-78
2022/12/28 05:16:56;;;;;;;7.05;2.13;;;13.30;99.90;;;;;;5012853;28;20021;-77
2022/12/28 05:22:20;;;;;;;9.85;2.00;;;13.20;99.90;;;;;;4958621;28;20479;-79
2022/12/28 05:24:46;;;;;;;5.63;2.20;;;13.20;99.90;;;;;;4972178;28;20047;-78
2022/12/28 05:27:21;;;;;;;5.47;2.03;;;13.20;99.90;;;;;;4971999;28;20077;-79
2022/12/28 05:29:59;;;;;;;4.45;2.15;;;13.20;99.90;;;;;;4971865;28;20434;-78
2022/12/28 05:32:25;;;;;;;4.03;2.20;;;13.10;99.90;;;;;;4954422;28;20059;-79
2022/12/28 05:35:00;;;;;;;5.13;2.40;;;13.10;99.90;;;;;;4953093;29;20062;-77
2022/12/28 05:37:26;;;;;;;8.13;2.13;;;13.10;99.90;;;;;;4952963;29;20073;-78
2022/12/28 05:39:52;;;;;;;6.57;2.50;;;13.10;99.90;;;;;;4952414;29;20093;-79
2022/12/28 05:42:27;;;;;;;8.93;2.70;;;13.10;99.90;;;;;;4957065;28;20031;-80
2022/12/28 05:44:53;;;;;;;6.07;2.28;;;13.10;99.90;;;;;;4956483;29;20362;-78
2022/12/28 05:47:21;;;;;;;5.57;2.10;;;13.10;99.90;;;;;;4956494;29;20380;-78
2022/12/28 05:49:50;;;;;;;5.97;2.05;;;13.00;99.90;;;;;;4956216;29;20503;-78
2022/12/28 05:52:23;;;;;;;5.10;1.88;;;13.00;99.90;;;;;;4956252;29;20051;-78
2022/12/28 05:55:00;;;;;;;5.97;2.30;;;13.00;99.90;;;;;;4956572;29;20553;-79
2022/12/28 05:57:29;;;;;;;6.18;2.10;;;13.00;99.90;;;;;;4944015;29;20062;-78
2022/12/28 05:59:59;;;;;;;6.05;2.38;;;13.00;99.90;;;;;;5004893;28;20112;-78
2022/12/28 06:02:26;;;;;;;6.55;2.58;;;13.00;99.90;;;;;;5034190;28;20465;-77
2022/12/28 06:05:00;;;;;;;7.80;2.70;;;12.90;99.90;;;;;;5035940;28;20037;-77
2022/12/28 06:07:26;;;;;;;5.85;2.88;;;12.90;99.90;;;;;;5036646;28;20022;-77
2022/12/28 06:09:52;;;;;;;6.90;3.00;;;12.90;99.90;;;;;;5036468;28;20064;-79
2022/12/28 06:12:20;;;;;;;6.38;2.65;;;12.80;99.90;;;;;;5035715;28;20037;-78
2022/12/28 06:14:46;;;;;;;6.80;2.92;;;12.80;99.90;;;;;;5018364;28;20064;-78
2022/12/28 06:17:12;;;;;;;7.00;2.50;;;12.80;99.90;;;;;;5036509;28;20025;-78
2022/12/28 06:20:00;;;;;;;5.20;2.13;;;12.80;99.90;;;;;;5036166;28;20034;-78
2022/12/28 06:22:28;;;;;;;6.13;2.30;;;12.90;99.90;;;;;;5036212;28;20553;-78
2022/12/28 06:24:55;;;;;;;7.32;2.45;;;12.90;99.90;;;;;;5035963;28;20041;-79
2022/12/28 06:27:24;;;;;;;5.03;2.50;;;12.90;99.90;;;;;;5042622;23;20045;-81
2022/12/28 06:32:55;;;;;;;9.38;2.92;;;13.00;99.90;;;;;;5207591;23;20174;-81
2022/12/28 06:35:23;;;;;;;11.93;3.30;;;13.00;99.90;;;;;;5015781;28;20108;-82
2022/12/28 06:37:55;;;;;;;5.63;2.60;;;13.10;99.90;;;;;;5150613;23;20508;-84
2022/12/28 06:40:27;;;;;;;5.55;2.60;;;13.20;99.90;;;;;;5016846;28;20025;-78
2022/12/28 06:42:57;;;;;;;8.90;3.05;;;13.40;99.90;;;;;;5017614;28;20036;-81
2022/12/28 06:45:32;;;;;;;9.23;3.13;;;13.90;99.90;;;;;;5035642;28;20038;-81
2022/12/28 06:48:23;;;;;;;8.38;2.70;;;14.70;99.90;;;;;;5035377;28;20496;-77
2022/12/28 06:50:55;;;;;;;11.45;2.65;;;15.60;99.90;;;;;;5035158;28;20130;-82
2022/12/28 06:53:35;;;;;;;6.75;2.47;;;16.50;99.90;;;;;;5034406;28;20030;-79
2022/12/28 06:56:05;;;;;;;17.02;2.70;;;17.40;99.90;;;;;;5035097;28;20022;-82
2022/12/28 06:58:33;;;;;;;11.85;3.00;;;18.20;99.90;;;;;;5035199;28;20484;-82
2022/12/28 07:01:29;;;;;;;6.65;2.83;;;19.00;99.90;;;;;;5041472;23;20446;-79
2022/12/28 07:03:59;;;;;;;8.73;2.28;;;19.70;99.90;;;;;;5018832;28;20431;-80
2022/12/28 07:06:27;;;;;;;4.63;2.40;;;20.10;99.90;;;;;;5035019;28;20048;-80
2022/12/28 07:09:03;;;;;;;6.10;2.45;;;19.20;99.90;;;;;;5034661;28;20079;-77
2022/12/28 07:11:33;;;;;;;6.80;2.33;;;19.00;99.90;;;;;;5034260;28;20037;-78
2022/12/28 07:13:59;;;;;;;5.40;2.17;;;18.80;99.90;;;;;;5034263;28;20426;-79
2022/12/28 07:16:28;;;;;;;7.32;2.25;;;18.70;99.90;;;;;;5034450;28;20036;-75
2022/12/28 07:18:55;;;;;;;5.65;2.22;;;18.50;99.90;;;;;;5034666;28;20034;-77
2022/12/28 07:21:27;;;;;;;10.88;2.00;;;18.70;99.90;;;;;;5034460;28;20031;-72
2022/12/28 07:23:56;;;;;;;5.07;2.30;;;18.80;99.90;;;;;;5034325;28;20018;-77
2022/12/28 07:26:25;;;;;;;8.48;2.30;;;19.10;99.90;;;;;;5036555;28;20041;-78
2022/12/28 07:28:59;;;;;;;7.15;2.17;;;19.90;99.90;;;;;;5037214;28;20032;-78
2022/12/28 07:31:39;;;;;;;4.72;2.03;;;20.80;99.90;;;;;;5054431;28;20029;-77
2022/12/28 07:34:16;;;;;;;8.35;2.33;;;21.90;99.90;;;;;;5054362;28;20375;-78
2022/12/28 07:36:59;;;;;;;5.90;1.90;;;22.80;99.90;;;;;;5020456;28;20075;-72
2022/12/28 07:39:28;;;;;;;6.15;2.20;;;20.40;99.90;;;;;;5034505;28;20053;-75
2022/12/28 07:41:54;;;;;;;7.47;2.40;;;19.60;99.90;;;;;;5033676;28;20032;-74
2022/12/28 07:44:21;;;;;;;11.13;2.55;;;19.30;99.90;;;;;;5033796;28;20033;-75
2022/12/28 07:46:50;;;;;;;6.78;2.30;;;19.20;99.90;;;;;;5033803;28;20029;-76
2022/12/28 07:49:17;;;;;;;7.28;2.15;;;19.30;99.90;;;;;;5016062;28;20032;-76
2022/12/28 07:51:58;;;;;;;6.43;1.90;;;19.30;99.90;;;;;;5033533;28;20033;-76
2022/12/28 07:54:33;;;;;;;5.32;2.10;;;18.80;99.90;;;;;;5033525;28;20457;-76
2022/12/28 07:57:10;;;;;;;5.15;2.00;;;18.70;99.90;;;;;;5033456;28;20358;-76
2022/12/28 07:59:37;;;;;;;7.88;1.85;;;18.60;99.90;;;;;;5033701;28;20476;-75
2022/12/28 08:02:09;;;;;;;6.20;1.80;;;17.90;99.90;;;;;;5032134;28;20135;-85
2022/12/28 08:04:48;;;;;;;5.50;1.83;;;17.20;99.90;;;;;;5014841;28;20056;-77
2022/12/28 08:07:14;;;;;;;3.55;1.95;;;17.00;99.90;;;;;;5046294;28;20044;-75
2022/12/28 08:09:40;;;;;;;7.32;2.28;;;16.70;99.90;;;;;;5035912;28;20033;-77
2022/12/28 08:12:06;;;;;;;5.00;1.98;;;16.80;99.90;;;;;;5053054;28;20079;-77
2022/12/28 08:14:54;;;;;;;9.43;1.92;;;16.80;99.90;;;;;;5053795;28;20455;-78
2022/12/28 08:17:23;;;;;;;9.88;2.10;;;17.10;99.90;;;;;;5052630;28;20041;-78
2022/12/28 08:19:49;;;;;;;6.45;1.73;;;17.10;99.90;;;;;;5041191;28;20026;-78
2022/12/28 08:22:33;;;;;;;6.20;1.85;;;17.30;99.90;;;;;;5034196;28;20032;-78
2022/12/28 08:24:59;;;;;;;6.90;1.70;;;17.40;99.90;;;;;;5033824;28;20493;-78
2022/12/28 08:27:28;;;;;;;9.18;2.17;;;17.50;99.90;;;;;;5033875;28;20025;-76
2022/12/28 08:29:54;;;;;;;7.38;1.88;;;17.50;99.90;;;;;;5033698;28;20040;-79
2022/12/28 08:32:20;;;;;;;5.93;1.88;;;17.50;99.90;;;;;;5015544;28;20037;-76
2022/12/28 08:34:52;;;;;;;4.13;1.88;;;17.60;99.90;;;;;;5033955;28;20469;-77
2022/12/28 08:37:18;;;;;;;5.38;1.77;;;17.60;99.90;;;;;;5016311;28;20029;-79
2022/12/28 08:39:56;;;;;;;7.43;1.75;;;17.70;99.90;;;;;;5033238;28;20036;-76
2022/12/28 08:42:22;;;;;;;6.35;1.92;;;17.70;99.90;;;;;;5032811;28;20025;-75
2022/12/28 08:44:48;;;;;;;5.25;2.10;;;17.80;99.90;;;;;;5033318;28;20040;-76
2022/12/28 08:47:14;;;;;;;4.05;1.80;;;17.90;99.90;;;;;;5033122;28;20060;-76
2022/12/28 08:49:41;;;;;;;7.07;1.83;;;18.10;99.90;;;;;;5020976;28;20030;-75
2022/12/28 08:52:07;;;;;;;3.78;1.70;;;18.20;99.90;;;;;;4995021;28;20471;-75
2022/12/28 08:54:36;;;;;;;5.88;2.20;;;18.30;99.90;;;;;;5012730;28;20029;-76
2022/12/28 08:57:02;;;;;;;8.68;2.03;;;18.40;99.90;;;;;;5012601;28;20109;-76
2022/12/28 08:59:28;;;;;;;5.50;1.73;;;18.50;99.90;;;;;;5012797;28;20041;-75
2022/12/28 09:01:54;;;;;;;3.45;1.35;;;18.70;99.90;;;;;;5025655;28;20045;-75
2022/12/28 09:04:23;;;;;;;6.32;1.63;;;18.80;99.90;;;;;;5031865;28;20457;-77
2022/12/28 09:06:51;;;;;;;14.25;2.22;;;19.00;99.90;;;;;;5030386;28;20045;-74
2022/12/28 09:09:18;;;;;;;4.30;1.73;;;19.00;99.90;;;;;;5032389;28;20329;-76
2022/12/28 09:11:46;;;;;;;7.20;2.28;;;19.20;99.90;;;;;;5014041;28;20035;-81
2022/12/28 09:17:32;;;;;;;8.50;2.58;;;19.60;99.90;;;;;;5084526;27;20451;-69
2022/12/28 09:19:58;;;;;;;7.07;2.83;;;19.70;99.90;;;;;;5070226;28;20075;-70
2022/12/28 09:22:25;;;;;;;15.60;2.80;;;19.80;99.90;;;;;;5069811;28;20048;-70
2022/12/28 09:24:51;;;;;;;7.75;2.88;;;19.80;99.90;;;;;;5069397;28;20040;-72
2022/12/28 09:27:17;;;;;;;6.75;2.17;;;19.80;99.90;;;;;;5067544;28;20432;-72
2022/12/28 09:29:43;;;;;;;3.70;1.98;;;19.70;99.90;;;;;;5069238;28;20021;-72
2022/12/28 09:32:09;;;;;;;5.47;2.45;;;19.50;99.90;;;;;;5069814;28;20025;-71
2022/12/28 09:34:35;;;;;;;9.82;2.80;;;19.40;99.90;;;;;;5070187;28;20024;-72
2022/12/28 09:37:02;;;;;;;7.43;2.33;;;19.50;99.90;;;;;;5070189;28;20033;-72
2022/12/28 09:39:29;;;;;;;5.60;2.35;;;19.60;99.90;;;;;;5069805;28;20567;-71
2022/12/28 09:42:22;;;;;;;12.18;2.45;;;19.60;99.90;;;;;;5069653;28;20480;-72
2022/12/28 09:45:05;;;;;;;6.35;2.30;;;19.60;99.90;;;;;;5049121;28;20025;-71
2022/12/28 09:47:46;;;;;;;10.65;2.65;;;19.70;99.90;;;;;;5060026;28;20025;-71
2022/12/28 09:50:18;;;;;;;7.15;2.10;;;19.60;99.90;;;;;;5069493;28;20024;-73
2022/12/28 09:53:03;;;;;;;7.93;2.65;;;19.40;99.90;;;;;;5068902;28;20036;-71
2022/12/28 09:55:30;;;;;;;5.65;2.30;;;19.50;99.90;;;;;;5069384;28;20050;-73
2022/12/28 09:57:58;;;;;;;16.27;8.07;;;19.70;99.90;;;;;;5067482;28;20504;-72
2022/12/28 10:00:28;;;;;;;7.13;2.15;;;19.80;99.90;;;;;;5068851;28;20457;-72
2022/12/28 10:03:06;;;;;;;4.65;1.70;;;20.00;99.90;;;;;;5068585;28;20024;-72
2022/12/28 10:05:33;;;;;;;4.25;1.73;;;20.10;99.90;;;;;;5068471;28;20048;-73
2022/12/28 10:08:03;;;;;;;4.72;1.80;;;19.60;99.90;;;;;;5068576;28;20063;-72
2022/12/28 10:10:30;;;;;;;5.95;2.63;;;19.60;99.90;;;;;;5068515;28;20365;-72
2022/12/28 12:39:06;;;;;;;6.47;2.42;;;20.90;99.90;;;;;;5109298;27;20525;-64
2022/12/28 12:41:59;;;;;;;8.65;2.65;;;20.90;99.90;;;;;;5053444;28;20036;-64
2022/12/28 12:44:45;;;;;;;8.77;2.58;;;20.80;99.90;;;;;;5030799;28;20068;-66
2022/12/28 12:47:48;;;;;;;6.60;3.00;;;20.80;99.90;;;;;;5030744;28;20033;-68
2022/12/28 12:50:58;;;;;;;8.00;3.05;;;20.80;99.90;;;;;;5047697;28;20112;-66
2022/12/28 12:54:08;;;;;;;11.00;3.70;;;20.70;99.90;;;;;;5036320;28;20148;-67
2022/12/28 12:56:46;;;;;;;12.55;3.97;;;20.70;99.90;;;;;;5047238;28;20048;-67
2022/12/28 12:59:45;;;;;;;9.15;3.88;;;20.80;99.90;;;;;;5047195;28;20044;-63
2022/12/28 13:02:19;;;;;;;7.22;3.45;;;20.90;99.90;;;;;;5047496;28;20029;-68
2022/12/28 13:04:45;;;;;;;9.75;3.40;;;20.80;99.90;;;;;;5046804;28;20040;-66
2022/12/28 13:07:22;;;;;;;9.50;3.65;;;20.80;99.90;;;;;;5047295;28;20117;-68
2022/12/28 13:09:51;;;;;;;10.02;3.92;;;20.90;99.90;;;;;;5046770;28;20504;-68
2022/12/28 13:12:19;;;;;;;7.13;3.13;;;20.90;99.90;;;;;;5046781;28;20485;-67
2022/12/28 13:14:48;;;;;;;10.80;3.33;;;21.00;99.90;;;;;;5046859;28;20534;-67
2022/12/28 13:17:19;;;;;;;8.63;3.10;;;20.90;99.90;;;;;;5046906;28;20041;-68
2022/12/28 13:19:45;;;;;;;7.45;2.95;;;21.00;99.90;;;;;;5069291;28;20071;-67
2022/12/28 13:22:31;;;;;;;7.05;2.60;;;21.00;99.90;;;;;;5069212;28;20025;-68
2022/12/28 13:25:00;;;;;;;6.05;2.60;;;20.90;99.90;;;;;;5069009;28;20021;-67
2022/12/28 13:27:35;;;;;;;7.20;2.70;;;21.10;99.90;;;;;;5069349;28;20024;-68
2022/12/28 13:30:02;;;;;;;10.48;2.90;;;21.20;99.90;;;;;;5069304;28;20017;-68
2022/12/28 13:32:31;;;;;;;6.63;2.60;;;21.10;99.90;;;;;;5068997;28;20024;-66
2022/12/28 13:34:57;;;;;;;4.47;2.30;;;21.20;99.90;;;;;;5080944;28;20541;-64
2022/12/28 13:37:23;;;;;;;7.35;2.15;;;21.10;99.90;;;;;;5099771;28;20104;-72
2022/12/28 13:40:08;;;;;;;4.80;1.70;;;21.10;99.90;;;;;;5096066;28;20025;-72
2022/12/28 13:42:57;;;;;;;4.32;1.50;;;21.10;99.90;;;;;;5051209;28;20036;-67
2022/12/28 13:45:28;;;;;;;5.18;1.95;;;21.30;99.90;;;;;;5068867;28;20106;-71
2022/12/28 13:48:01;;;;;;;4.53;1.52;;;21.20;99.90;;;;;;5066021;28;20384;-64
2022/12/28 13:50:30;;;;;;;5.28;2.00;;;21.20;99.90;;;;;;5081257;28;20028;-63
2022/12/28 13:53:02;;;;;;;6.63;1.80;;;21.30;99.90;;;;;;5095025;28;20020;-69
2022/12/28 13:55:39;;;;;;;7.47;1.85;;;21.20;99.90;;;;;;5094817;28;20418;-67
2022/12/28 14:01:36;;;;;;;5.22;1.95;;;21.30;99.90;;;;;;5040170;27;2475548;-64
2022/12/28 14:04:09;;;;;;;5.90;2.10;;;21.10;99.90;;;;;;5130366;28;20069;-70
2022/12/28 14:06:36;;;;;;;7.07;1.90;;;21.00;99.90;;;;;;5112247;28;20046;-69
2022/12/28 14:09:03;;;;;;;7.25;2.22;;;21.00;99.90;;;;;;5130340;28;20133;-65
2022/12/28 14:11:30;;;;;;;6.30;2.13;;;21.10;99.90;;;;;;5129478;28;20028;-70
2022/12/28 14:13:57;;;;;;;6.80;2.25;;;21.10;99.90;;;;;;5130050;28;20023;-70
2022/12/28 14:16:32;;;;;;;4.47;1.75;;;20.70;99.90;;;;;;5111539;28;20070;-64
2022/12/28 14:19:02;;;;;;;7.78;2.17;;;20.70;99.90;;;;;;5130709;28;20446;-70
2022/12/28 14:21:50;;;;;;;6.43;1.77;;;20.80;99.90;;;;;;5130648;28;20393;-68
2022/12/28 14:24:16;;;;;;;5.32;1.80;;;20.70;99.90;;;;;;5112367;28;20439;-69
2022/12/28 14:27:07;;;;;;;5.55;2.03;;;20.80;99.90;;;;;;5129864;28;20059;-69
2022/12/28 14:29:42;;;;;;;6.47;2.10;;;20.90;99.90;;;;;;5130186;28;20332;-70
2022/12/28 14:32:14;;;;;;;11.73;2.55;;;20.90;99.90;;;;;;5130105;28;20073;-70
2022/12/28 14:34:41;;;;;;;5.28;2.40;;;20.80;99.90;;;;;;5130237;28;20119;-69
2022/12/28 14:37:24;;;;;;;6.68;2.25;;;20.80;99.90;;;;;;5130290;28;20102;-70
2022/12/28 14:39:51;;;;;;;5.45;2.30;;;20.80;99.90;;;;;;5130323;28;20077;-69
2022/12/28 14:42:23;;;;;;;7.88;2.78;;;20.80;99.90;;;;;;5111772;28;20077;-70
2022/12/28 14:44:50;;;;;;;10.98;2.95;;;20.80;99.90;;;;;;5130251;28;20019;-70
2022/12/28 14:47:43;;;;;;;8.77;2.38;;;20.80;99.90;;;;;;5111549;28;20031;-70
2022/12/28 14:50:53;;;;;;;7.32;2.42;;;20.80;99.90;;;;;;5130542;28;20102;-69
2022/12/28 14:53:19;;;;;;;7.85;3.08;;;20.70;99.90;;;;;;5026216;28;20065;-68
2022/12/28 14:55:59;;;;;;;13.27;2.80;;;20.60;99.90;;;;;;5026288;28;20101;-69
2022/12/28 14:58:42;;;;;;;10.48;3.00;;;20.50;99.90;;;;;;5026500;28;20030;-70
2022/12/28 15:01:29;;;;;;;8.10;2.60;;;20.40;99.90;;;;;;5025514;28;20061;-66
2022/12/28 15:04:01;;;;;;;9.07;2.75;;;20.40;99.90;;;;;;5026559;28;20466;-69
2022/12/28 15:06:32;;;;;;;9.35;3.17;;;20.30;99.90;;;;;;5026558;28;20068;-69
2022/12/28 15:09:00;;;;;;;9.25;3.67;;;20.30;99.90;;;;;;5025959;28;20482;-70
2022/12/28 15:11:30;;;;;;;9.98;3.15;;;20.20;99.90;;;;;;5020282;28;20041;-68
2022/12/28 15:13:57;;;;;;;13.90;4.10;;;20.10;99.90;;;;;;5012711;28;20034;-69
2022/12/28 15:16:23;;;;;;;10.88;3.88;;;20.00;99.90;;;;;;5012852;28;20052;-70
2022/12/28 15:18:49;;;;;;;14.02;3.85;;;19.90;99.90;;;;;;5013014;28;20116;-68
2022/12/28 15:21:19;;;;;;;12.70;3.22;;;19.80;99.90;;;;;;5012925;28;20040;-69
2022/12/28 15:23:54;;;;;;;10.57;3.60;;;19.70;99.90;;;;;;5012619;28;20109;-69
2022/12/28 15:26:22;;;;;;;13.30;3.85;;;19.60;99.90;;;;;;5012681;28;20038;-69
2022/12/28 15:28:50;;;;;;;12.13;3.10;;;19.50;99.90;;;;;;5027195;28;20035;-68
2022/12/28 15:31:25;;;;;;;8.63;3.50;;;19.40;99.90;;;;;;5084164;28;20115;-70
2022/12/28 15:33:52;;;;;;;10.02;3.45;;;19.40;99.90;;;;;;5094473;28;20178;-68
2022/12/28 15:36:23;;;;;;;12.60;4.40;;;19.20;99.90;;;;;;5094132;28;20356;-73
2022/12/28 15:38:49;;;;;;;12.13;4.90;;;19.00;99.90;;;;;;5093344;28;20020;-66
2022/12/28 15:44:02;;;;;;;11.32;4.60;;;18.80;99.90;;;;;;5094588;28;20066;-69
2022/12/28 15:46:31;;;;;;;11.65;4.50;;;18.60;99.90;;;;;;5094088;28;20021;-69
2022/12/28 15:48:57;;;;;;;10.75;4.35;;;18.30;99.90;;;;;;5093781;28;20170;-69
2022/12/28 15:51:25;;;;;;;11.00;4.25;;;18.10;99.90;;;;;;5093691;28;20056;-70
2022/12/28 15:53:56;;;;;;;10.80;3.95;;;18.10;99.90;;;;;;5093553;28;20052;-70
2022/12/28 15:56:28;;;;;;;9.13;3.85;;;18.00;99.90;;;;;;5094123;28;20066;-68
2022/12/28 15:59:00;;;;;;;11.65;4.38;;;17.90;99.90;;;;;;5093632;28;20039;-68
2022/12/28 16:01:28;;;;;;;18.63;4.35;;;17.80;99.90;;;;;;5111267;28;20412;-68
2022/12/28 16:03:58;;;;;;;13.00;4.38;;;17.70;99.90;;;;;;5113798;28;20034;-68
2022/12/28 16:06:28;;;;;;;10.32;4.30;;;17.60;99.90;;;;;;5096072;28;20051;-68
2022/12/28 16:09:04;;;;;;;12.70;4.63;;;17.50;99.90;;;;;;5113653;28;20072;-68
2022/12/28 16:11:33;;;;;;;15.05;5.28;;;17.40;99.90;;;;;;5113261;28;20051;-68
2022/12/28 16:14:05;;;;;;;15.35;4.88;;;17.20;99.90;;;;;;5113107;28;20030;-68
2022/12/28 16:16:37;;;;;;;11.50;4.90;;;17.10;99.90;;;;;;5112802;28;20045;-68
2022/12/28 16:19:04;;;;;;;10.82;4.70;;;17.00;99.90;;;;;;5113304;28;20494;-66
2022/12/28 16:21:30;;;;;;;8.60;4.72;;;16.90;99.90;;;;;;5113638;28;20032;-68
2022/12/28 16:23:58;;;;;;;12.00;4.90;;;16.90;99.90;;;;;;5112513;28;20024;-68